createdAt,value
2019-02-09T00:00:41.701Z,99142.00
2019-02-09T00:03:13.302Z,99134.00
2019-02-09T00:05:44.739Z,99137.00
2019-02-09T00:08:16.722Z,99118.00
2019-02-09T00:10:48.701Z,99126.00
2019-02-09T00:13:20.319Z,99130.00
2019-02-09T00:15:55.869Z,99118.00
2019-02-09T00:18:28.391Z,99109.00
2019-02-09T00:20:59.903Z,99113.00
2019-02-09T00:23:31.700Z,99104.00
2019-02-09T00:26:04.779Z,99091.00
2019-02-09T00:28:36.389Z,99106.00
2019-02-09T00:31:07.977Z,99111.00
2019-02-09T00:33:39.452Z,99090.00
2019-02-09T00:36:10.922Z,99090.00
2019-02-09T00:38:42.471Z,99073.00
2019-02-09T00:41:13.926Z,99074.00
2019-02-09T00:43:45.481Z,99067.00
2019-02-09T00:46:17.051Z,99067.00
2019-02-09T00:48:48.600Z,99065.00
2019-02-09T00:51:20.181Z,99059.00
2019-02-09T00:53:51.725Z,99059.00
2019-02-09T00:56:23.253Z,99057.00
2019-02-09T00:58:54.768Z,99056.00
2019-02-09T01:01:26.361Z,99044.00
2019-02-09T01:03:57.992Z,99043.00
2019-02-09T01:06:29.581Z,99039.00
2019-02-09T01:09:01.250Z,99049.00
2019-02-09T01:11:34.331Z,99043.00
2019-02-09T01:14:08.199Z,99049.00
2019-02-09T01:16:39.765Z,99049.00
2019-02-09T01:19:11.373Z,99040.00
2019-02-09T01:21:42.831Z,99028.00
2019-02-09T01:24:14.375Z,99025.00
2019-02-09T01:26:45.827Z,99024.00
2019-02-09T01:29:17.493Z,99019.00
2019-02-09T01:31:48.909Z,99018.00
2019-02-09T01:34:20.408Z,99014.00
2019-02-09T01:36:51.939Z,99020.00
2019-02-09T01:39:23.584Z,99026.00
2019-02-09T01:41:55.189Z,99020.00
2019-02-09T01:44:26.795Z,99009.00
2019-02-09T01:46:59.143Z,99011.00
2019-02-09T01:49:30.931Z,99001.00
2019-02-09T01:52:06.997Z,98999.00
2019-02-09T01:54:38.497Z,98997.00
2019-02-09T01:57:09.953Z,98987.00
2019-02-09T01:59:41.503Z,98976.00
2019-02-09T02:02:12.977Z,98974.00
2019-02-09T02:04:45.582Z,98980.00
2019-02-09T02:07:17.055Z,98981.00
2019-02-09T02:09:48.491Z,98980.00
2019-02-09T02:12:20.007Z,98971.00
2019-02-09T02:14:51.533Z,98981.00
2019-02-09T02:17:23.038Z,98971.00
2019-02-09T02:19:54.661Z,98965.00
2019-02-09T02:22:26.146Z,98953.00
2019-02-09T02:24:58.477Z,98958.00
2019-02-09T02:27:32.700Z,98956.00
2019-02-09T02:30:21.731Z,98945.00
2019-02-09T02:32:43.969Z,98938.00
2019-02-09T02:35:15.940Z,98931.00
2019-02-09T02:37:47.687Z,98922.00
2019-02-09T02:40:20.662Z,98925.00
2019-02-09T02:42:52.386Z,98915.00
2019-02-09T02:45:24.467Z,98905.00
2019-02-09T02:48:08.158Z,98906.00
2019-02-09T02:50:39.775Z,98912.00
2019-02-09T02:53:11.251Z,98894.00
2019-02-09T02:55:42.723Z,98886.00
2019-02-09T02:58:14.283Z,98884.00
2019-02-09T03:00:45.727Z,98880.00
2019-02-09T03:03:17.161Z,98881.00
2019-02-09T03:05:48.826Z,98871.00
2019-02-09T03:08:20.327Z,98873.00
2019-02-09T03:10:51.763Z,98863.00
2019-02-09T03:13:23.242Z,98868.00
2019-02-09T03:15:54.704Z,98859.00
2019-02-09T03:18:26.274Z,98873.00
2019-02-09T03:20:57.750Z,98865.00
2019-02-09T03:23:29.172Z,98872.00
2019-02-09T03:26:00.661Z,98858.00
2019-02-09T03:28:32.891Z,98872.00
2019-02-09T03:31:04.357Z,98861.00
2019-02-09T03:33:35.811Z,98862.00
2019-02-09T03:36:07.287Z,98866.00
2019-02-09T03:38:38.779Z,98863.00
2019-02-09T03:41:10.263Z,98857.00
2019-02-09T03:43:41.763Z,98858.00
2019-02-09T03:46:13.251Z,98855.00
2019-02-09T03:48:44.729Z,98847.00
2019-02-09T03:51:16.179Z,98863.00
2019-02-09T03:53:47.624Z,98844.00
2019-02-09T03:56:19.101Z,98850.00
2019-02-09T03:58:50.585Z,98847.00
2019-02-09T04:01:22.078Z,98834.00
2019-02-09T04:03:53.669Z,98827.00
2019-02-09T04:06:26.849Z,98835.00
2019-02-09T04:08:58.309Z,98846.00
2019-02-09T04:11:29.785Z,98855.00
2019-02-09T04:14:01.212Z,98833.00
2019-02-09T04:16:32.666Z,98846.00
2019-02-09T04:19:04.162Z,98839.00
2019-02-09T04:21:35.760Z,98830.00
2019-02-09T04:24:07.222Z,98837.00
2019-02-09T04:26:38.732Z,98840.00
2019-02-09T04:29:10.209Z,98837.00
2019-02-09T04:31:41.668Z,98832.00
2019-02-09T04:34:13.452Z,98825.00
2019-02-09T04:36:44.906Z,98811.00
2019-02-09T04:39:16.330Z,98820.00
2019-02-09T04:41:47.834Z,98802.00
2019-02-09T04:44:19.260Z,98813.00
2019-02-09T04:46:50.889Z,98816.00
2019-02-09T04:49:22.332Z,98814.00
2019-02-09T04:51:54.045Z,98823.00
2019-02-09T04:54:25.497Z,98823.00
2019-02-09T04:56:56.942Z,98825.00
2019-02-09T04:59:28.397Z,98830.00
2019-02-09T05:01:59.886Z,98826.00
2019-02-09T05:04:31.368Z,98826.00
2019-02-09T05:07:03.963Z,98824.00
2019-02-09T05:09:35.440Z,98826.00
2019-02-09T05:12:06.978Z,98827.00
2019-02-09T05:14:38.481Z,98821.00
2019-02-09T05:17:09.946Z,98814.00
2019-02-09T05:19:41.354Z,98815.00
2019-02-09T05:22:12.924Z,98798.00
2019-02-09T05:24:44.412Z,98810.00
2019-02-09T05:27:15.910Z,98823.00
2019-02-09T05:29:47.337Z,98821.00
2019-02-09T05:32:19.861Z,98809.00
2019-02-09T05:34:51.300Z,98811.00
2019-02-09T05:37:23.107Z,98803.00
2019-02-09T05:39:54.530Z,98801.00
2019-02-09T05:42:25.976Z,98812.00
2019-02-09T05:44:57.444Z,98800.00
2019-02-09T05:47:28.914Z,98803.00
2019-02-09T05:50:00.356Z,98785.00
2019-02-09T05:52:31.820Z,98800.00
2019-02-09T05:55:03.214Z,98799.00
2019-02-09T05:57:34.688Z,98792.00
2019-02-09T06:00:09.824Z,98798.00
2019-02-09T06:02:41.414Z,98801.00
2019-02-09T06:05:13.291Z,98793.00
2019-02-09T06:07:44.948Z,98792.00
2019-02-09T06:10:17.656Z,98792.00
2019-02-09T06:12:49.080Z,98798.00
2019-02-09T06:15:20.809Z,98809.00
2019-02-09T06:17:52.441Z,98798.00
2019-02-09T06:20:25.510Z,98808.00
2019-02-09T06:22:57.099Z,98817.00
2019-02-09T06:25:28.637Z,98827.00
2019-02-09T06:28:00.112Z,98835.00
2019-02-09T06:30:32.050Z,98823.00
2019-02-09T06:33:03.528Z,98825.00
2019-02-09T06:35:34.995Z,98826.00
2019-02-09T06:38:06.562Z,98834.00
2019-02-09T06:40:37.981Z,98834.00
2019-02-09T06:43:09.420Z,98836.00
2019-02-09T06:45:40.875Z,98828.00
2019-02-09T06:48:27.290Z,98826.00
2019-02-09T06:51:02.110Z,98834.00
2019-02-09T06:53:33.716Z,98844.00
2019-02-09T06:56:05.478Z,98826.00
2019-02-09T06:58:37.628Z,98827.00
2019-02-09T07:01:09.047Z,98837.00
2019-02-09T07:03:41.011Z,98821.00
2019-02-09T07:06:12.593Z,98837.00
2019-02-09T07:08:46.041Z,98841.00
2019-02-09T07:11:17.755Z,98837.00
2019-02-09T07:13:49.745Z,98843.00
2019-02-09T07:16:21.235Z,98826.00
2019-02-09T07:18:52.751Z,98843.00
2019-02-09T07:21:24.219Z,98847.00
2019-02-09T07:23:59.517Z,98843.00
2019-02-09T07:26:31.019Z,98850.00
2019-02-09T07:29:08.369Z,98850.00
2019-02-09T07:31:39.787Z,98855.00
2019-02-09T07:34:13.032Z,98856.00
2019-02-09T07:36:51.764Z,98860.00
2019-02-09T07:39:24.888Z,98870.00
2019-02-09T07:41:56.392Z,98869.00
2019-02-09T07:44:27.889Z,98868.00
2019-02-09T07:46:59.349Z,98872.00
2019-02-09T07:49:30.822Z,98870.00
2019-02-09T07:52:02.311Z,98861.00
2019-02-09T07:54:33.813Z,98871.00
2019-02-09T07:57:05.321Z,98874.00
2019-02-09T07:59:36.683Z,98881.00
2019-02-09T08:02:08.311Z,98889.00
2019-02-09T08:04:39.755Z,98882.00
2019-02-09T08:07:11.219Z,98882.00
2019-02-09T08:09:42.718Z,98886.00
2019-02-09T08:12:14.311Z,98887.00
2019-02-09T08:14:45.799Z,98885.00
2019-02-09T08:17:17.969Z,98886.00
2019-02-09T08:19:49.493Z,98883.00
2019-02-09T08:22:23.282Z,98879.00
2019-02-09T08:24:54.783Z,98888.00
2019-02-09T08:27:28.373Z,98892.00
2019-02-09T08:29:59.858Z,98885.00
2019-02-09T08:32:31.537Z,98889.00
2019-02-09T08:35:05.095Z,98893.00
2019-02-09T08:37:36.588Z,98890.00
2019-02-09T08:40:09.468Z,98894.00
2019-02-09T08:42:41.184Z,98895.00
2019-02-09T08:45:16.957Z,98905.00
2019-02-09T08:47:48.593Z,98893.00
2019-02-09T08:50:24.036Z,98895.00
2019-02-09T08:52:56.748Z,98890.00
2019-02-09T08:55:28.427Z,98898.00
2019-02-09T08:58:02.415Z,98911.00
2019-02-09T09:00:35.171Z,98903.00
2019-02-09T09:03:08.342Z,98910.00
2019-02-09T09:05:43.950Z,98916.00
2019-02-09T09:08:15.561Z,98910.00
2019-02-09T09:10:47.215Z,98923.00
2019-02-09T09:13:18.704Z,98904.00
2019-02-09T09:15:54.040Z,98922.00
2019-02-09T09:18:26.824Z,98918.00
2019-02-09T09:21:02.345Z,98923.00
2019-02-09T09:23:33.852Z,98930.00
2019-02-09T09:26:05.511Z,98929.00
2019-02-09T09:28:37.560Z,98920.00
2019-02-09T09:31:09.340Z,98923.00
2019-02-09T09:33:40.908Z,98925.00
2019-02-09T09:36:13.688Z,98938.00
2019-02-09T09:38:45.291Z,98908.00
2019-02-09T09:41:17.033Z,98918.00
2019-02-09T09:43:48.827Z,98909.00
2019-02-09T09:46:23.369Z,98914.00
2019-02-09T09:48:54.814Z,98920.00
2019-02-09T09:51:27.732Z,98928.00
2019-02-09T09:53:59.258Z,98931.00
2019-02-09T09:56:30.729Z,98946.00
2019-02-09T09:59:02.272Z,98946.00
2019-02-09T10:01:33.754Z,98939.00
2019-02-09T10:04:05.508Z,98940.00
2019-02-09T10:06:37.256Z,98944.00
2019-02-09T10:09:10.982Z,98962.00
2019-02-09T10:11:42.544Z,98957.00
2019-02-09T10:14:14.108Z,98969.00
2019-02-09T10:16:45.708Z,98956.00
2019-02-09T10:19:18.470Z,98975.00
2019-02-09T10:21:52.834Z,98975.00
2019-02-09T10:24:24.434Z,98968.00
2019-02-09T10:26:56.068Z,98984.00
2019-02-09T10:29:27.594Z,98978.00
2019-02-09T10:32:00.437Z,98961.00
2019-02-09T10:34:31.968Z,98975.00
2019-02-09T10:37:03.433Z,98974.00
2019-02-09T10:39:35.045Z,98975.00
2019-02-09T10:42:06.665Z,98965.00
2019-02-09T10:44:38.356Z,98975.00
2019-02-09T10:47:10.632Z,98960.00
2019-02-09T10:49:42.123Z,98964.00
2019-02-09T10:52:13.712Z,98970.00
2019-02-09T10:54:45.251Z,98959.00
2019-02-09T10:57:16.762Z,98938.00
2019-02-09T10:59:48.658Z,98939.00
2019-02-09T11:02:20.121Z,98965.00
2019-02-09T11:04:51.596Z,98947.00
2019-02-09T11:07:23.176Z,98947.00
2019-02-09T11:09:54.678Z,98967.00
2019-02-09T11:12:29.144Z,98955.00
2019-02-09T11:15:02.300Z,98951.00
2019-02-09T11:17:34.130Z,98971.00
2019-02-09T11:20:07.598Z,98946.00
2019-02-09T11:22:39.391Z,98959.00
2019-02-09T11:25:11.918Z,98978.00
2019-02-09T11:27:43.419Z,98964.00
2019-02-09T11:30:21.864Z,98959.00
2019-02-09T11:33:01.979Z,98965.00
2019-02-09T11:35:31.064Z,98945.00
2019-02-09T11:38:03.126Z,98952.00
2019-02-09T11:40:34.951Z,98954.00
2019-02-09T11:43:12.482Z,98936.00
2019-02-09T11:45:44.076Z,98968.00
2019-02-09T11:48:16.801Z,98949.00
2019-02-09T11:50:48.392Z,98941.00
2019-02-09T11:53:19.998Z,98951.00
2019-02-09T11:55:51.516Z,98949.00
2019-02-09T11:58:23.114Z,98951.00
2019-02-09T12:00:54.976Z,98947.00
2019-02-09T12:03:28.659Z,98942.00
2019-02-09T12:06:00.625Z,98943.00
2019-02-09T12:08:32.295Z,98935.00
2019-02-09T12:11:03.879Z,98945.00
2019-02-09T12:13:35.508Z,98949.00
2019-02-09T12:16:08.750Z,98957.00
2019-02-09T12:18:40.390Z,98945.00
2019-02-09T12:21:14.294Z,98927.00
2019-02-09T12:23:45.841Z,98941.00
2019-02-09T12:26:17.510Z,98939.00
2019-02-09T12:28:49.014Z,98936.00
2019-02-09T12:31:21.291Z,98941.00
2019-02-09T12:33:52.865Z,98943.00
2019-02-09T12:36:24.339Z,98955.00
2019-02-09T12:38:55.838Z,98953.00
2019-02-09T12:41:27.405Z,98949.00
2019-02-09T12:44:03.009Z,98945.00
2019-02-09T12:46:34.543Z,98970.00
2019-02-09T12:49:06.617Z,98948.00
2019-02-09T12:51:38.133Z,98958.00
2019-02-09T12:54:09.709Z,98950.00
2019-02-09T12:56:41.255Z,98939.00
2019-02-09T12:59:15.260Z,98944.00
2019-02-09T13:01:47.279Z,98927.00
2019-02-09T13:04:18.968Z,98964.00
2019-02-09T13:06:50.615Z,98925.00
2019-02-09T13:09:22.153Z,98957.00
2019-02-09T13:11:56.038Z,98949.00
2019-02-09T13:14:27.843Z,98957.00
2019-02-09T13:16:59.499Z,98950.00
2019-02-09T13:19:31.035Z,98915.00
2019-02-09T13:22:02.519Z,98936.00
2019-02-09T13:24:34.104Z,98939.00
2019-02-09T13:27:05.772Z,98947.00
2019-02-09T13:29:40.378Z,98941.00
2019-02-09T13:32:11.981Z,98943.00
2019-02-09T13:34:43.825Z,98942.00
2019-02-09T13:37:15.327Z,98957.00
2019-02-09T13:39:46.843Z,98947.00
2019-02-09T13:42:18.351Z,98935.00
2019-02-09T13:44:52.067Z,98935.00
2019-02-09T13:47:23.772Z,98944.00
2019-02-09T13:49:55.387Z,98956.00
2019-02-09T13:52:26.867Z,98960.00
2019-02-09T13:54:58.604Z,98937.00
2019-02-09T13:57:30.489Z,98932.00
2019-02-09T14:00:02.123Z,98939.00
2019-02-09T14:02:34.817Z,98936.00
2019-02-09T14:05:06.950Z,98950.00
2019-02-09T14:07:38.507Z,98948.00
2019-02-09T14:13:02.836Z,98965.00
2019-02-09T14:15:35.783Z,98962.00
2019-02-09T14:18:13.629Z,98957.00
2019-02-09T14:20:45.191Z,98962.00
2019-02-09T14:23:28.525Z,98970.00
2019-02-09T14:26:00.336Z,98956.00
2019-02-09T14:28:33.256Z,98969.00
2019-02-09T14:31:05.010Z,98969.00
2019-02-09T14:33:37.354Z,98969.00
2019-02-09T14:36:09.049Z,98975.00
2019-02-09T14:38:45.480Z,98972.00
2019-02-09T14:41:17.022Z,98985.00
2019-02-09T14:43:49.512Z,99003.00
2019-02-09T14:46:21.153Z,99002.00
2019-02-09T14:49:00.300Z,99083.00
2019-02-09T14:51:32.008Z,99075.00
2019-02-09T14:54:03.579Z,99074.00
2019-02-09T14:56:35.547Z,99068.00
2019-02-09T14:59:09.917Z,99078.00
2019-02-09T15:01:41.730Z,99063.00
2019-02-09T15:04:17.041Z,99062.00
2019-02-09T15:06:48.706Z,99071.00
2019-02-09T15:09:22.694Z,99051.00
2019-02-09T15:11:55.980Z,99065.00
2019-02-09T15:14:29.818Z,99070.00
2019-02-09T15:17:05.501Z,99058.00
2019-02-09T15:19:40.019Z,99080.00
2019-02-09T15:22:11.637Z,99076.00
2019-02-09T15:24:44.099Z,99073.00
2019-02-09T15:27:15.692Z,99088.00
2019-02-09T15:29:47.207Z,99081.00
2019-02-09T15:32:18.844Z,99081.00
2019-02-09T15:34:51.916Z,99075.00
2019-02-09T15:37:25.269Z,99088.00
2019-02-09T15:39:56.714Z,99097.00
2019-02-09T15:42:28.307Z,99103.00
2019-02-09T15:44:59.774Z,99098.00
2019-02-09T15:47:31.284Z,99096.00
2019-02-09T15:50:02.781Z,99102.00
2019-02-09T15:52:35.331Z,99090.00
2019-02-09T15:55:09.191Z,99108.00
2019-02-09T15:57:40.773Z,99112.00
2019-02-09T16:00:18.184Z,99111.00
2019-02-09T16:02:49.995Z,99095.00
2019-02-09T16:05:21.604Z,99107.00
2019-02-09T16:07:53.217Z,99115.00
2019-02-09T16:10:25.074Z,99118.00
2019-02-09T16:12:56.825Z,99106.00
2019-02-09T16:15:29.858Z,99119.00
2019-02-09T16:18:02.389Z,99114.00
2019-02-09T16:20:33.918Z,99125.00
2019-02-09T16:23:05.621Z,99120.00
2019-02-09T16:25:37.096Z,99130.00
2019-02-09T16:28:08.752Z,99123.00
2019-02-09T16:30:40.248Z,99127.00
2019-02-09T16:33:11.768Z,99126.00
2019-02-09T16:35:50.406Z,99129.00
2019-02-09T16:38:23.406Z,99129.00
2019-02-09T16:40:55.037Z,99135.00
2019-02-09T16:43:26.638Z,99141.00
2019-02-09T16:45:58.134Z,99146.00
2019-02-09T16:48:29.646Z,99147.00
2019-02-09T16:51:01.164Z,99154.00
2019-02-09T16:53:33.163Z,99149.00
2019-02-09T16:56:04.790Z,99164.00
2019-02-09T16:58:38.483Z,99157.00
2019-02-09T17:01:10.002Z,99170.00
2019-02-09T17:03:41.478Z,99175.00
2019-02-09T17:06:12.944Z,99175.00
2019-02-09T17:08:45.570Z,99183.00
2019-02-09T17:11:17.166Z,99181.00
2019-02-09T17:13:48.671Z,99184.00
2019-02-09T17:16:20.272Z,99203.00
2019-02-09T17:18:53.355Z,99195.00
2019-02-09T17:21:24.972Z,99195.00
2019-02-09T17:23:56.577Z,99205.00
2019-02-09T17:26:28.222Z,99204.00
2019-02-09T17:29:02.051Z,99216.00
2019-02-09T17:31:34.079Z,99216.00
2019-02-09T17:34:05.900Z,99232.00
2019-02-09T17:36:37.479Z,99233.00
2019-02-09T17:39:11.012Z,99245.00
2019-02-09T17:41:44.034Z,99232.00
2019-02-09T17:44:16.485Z,99239.00
2019-02-09T17:46:47.976Z,99239.00
2019-02-09T17:49:19.437Z,99237.00
2019-02-09T17:51:51.039Z,99251.00
2019-02-09T17:54:22.618Z,99248.00
2019-02-09T17:56:54.147Z,99255.00
2019-02-09T17:59:26.961Z,99258.00
2019-02-09T18:01:58.486Z,99263.00
2019-02-09T18:04:29.964Z,99263.00
2019-02-09T18:07:03.573Z,99263.00
2019-02-09T18:09:35.165Z,99281.00
2019-02-09T18:12:06.877Z,99272.00
2019-02-09T18:14:38.565Z,99272.00
2019-02-09T18:17:10.189Z,99266.00
2019-02-09T18:19:41.841Z,99261.00
2019-02-09T18:22:19.033Z,99273.00
2019-02-09T18:24:53.137Z,99265.00
2019-02-09T18:27:24.791Z,99266.00
2019-02-09T18:29:56.765Z,99260.00
2019-02-09T18:32:28.301Z,99264.00
2019-02-09T18:34:59.872Z,99268.00
2019-02-09T18:37:31.671Z,99266.00
2019-02-09T18:40:05.817Z,99270.00
2019-02-09T18:42:41.471Z,99277.00
2019-02-09T18:45:15.551Z,99280.00
2019-02-09T18:47:47.405Z,99280.00
2019-02-09T18:50:24.133Z,99280.00
2019-02-09T18:52:57.275Z,99283.00
2019-02-09T18:55:29.275Z,99275.00
2019-02-09T18:58:00.731Z,99272.00
2019-02-09T19:00:34.527Z,99277.00
2019-02-09T19:03:07.887Z,99290.00
2019-02-09T19:05:39.442Z,99306.00
2019-02-09T19:08:11.187Z,99294.00
2019-02-09T19:10:45.154Z,99294.00
2019-02-09T19:13:16.732Z,99310.00
2019-02-09T19:15:48.427Z,99316.00
2019-02-09T19:18:19.927Z,99317.00
2019-02-09T19:20:56.042Z,99324.00
2019-02-09T19:23:27.546Z,99334.00
2019-02-09T19:25:59.208Z,99326.00
2019-02-09T19:28:30.809Z,99338.00
2019-02-09T19:31:02.388Z,99337.00
2019-02-09T19:33:34.001Z,99351.00
2019-02-09T19:36:05.743Z,99332.00
2019-02-09T19:38:37.308Z,99342.00
2019-02-09T19:41:08.821Z,99338.00
2019-02-09T19:43:40.351Z,99344.00
2019-02-09T19:46:11.877Z,99346.00
2019-02-09T19:48:43.458Z,99339.00
2019-02-09T19:51:15.181Z,99346.00
2019-02-09T19:53:48.191Z,99351.00
2019-02-09T19:56:19.926Z,99346.00
2019-02-09T19:58:51.774Z,99355.00
2019-02-09T20:01:24.062Z,99353.00
2019-02-09T20:03:55.905Z,99353.00
2019-02-09T20:06:27.807Z,99368.00
2019-02-09T20:08:59.998Z,99370.00
2019-02-09T20:11:31.853Z,99367.00
2019-02-09T20:14:03.386Z,99378.00
2019-02-09T20:16:35.941Z,99371.00
2019-02-09T20:19:07.612Z,99376.00
2019-02-09T20:21:39.322Z,99385.00
2019-02-09T20:24:11.405Z,99389.00
2019-02-09T20:26:44.316Z,99389.00
2019-02-09T20:29:15.990Z,99389.00
2019-02-09T20:31:52.647Z,99397.00
2019-02-09T20:34:24.569Z,99399.00
2019-02-09T20:36:56.162Z,99400.00
2019-02-09T20:39:29.180Z,99405.00
2019-02-09T20:42:00.976Z,99409.00
2019-02-09T20:44:33.620Z,99413.00
2019-02-09T20:47:05.476Z,99423.00
2019-02-09T20:49:37.263Z,99421.00
2019-02-09T20:52:08.986Z,99423.00
2019-02-09T20:54:40.696Z,99428.00
2019-02-09T20:57:12.543Z,99416.00
2019-02-09T20:59:44.020Z,99421.00
2019-02-09T21:02:16.688Z,99426.00
2019-02-09T21:04:49.777Z,99426.00
2019-02-09T21:07:24.843Z,99432.00
2019-02-09T21:09:58.981Z,99433.00
2019-02-09T21:12:30.864Z,99437.00
2019-02-09T21:15:03.621Z,99450.00
2019-02-09T21:17:35.577Z,99383.00
2019-02-09T21:20:07.950Z,99436.00
2019-02-09T21:22:39.570Z,99444.00
2019-02-09T21:25:35.550Z,99444.00
2019-02-09T21:28:08.039Z,99437.00
2019-02-09T21:30:39.993Z,99437.00
2019-02-09T21:33:11.662Z,99447.00
2019-02-09T21:35:46.058Z,99445.00
2019-02-09T21:38:17.614Z,99446.00
2019-02-09T21:40:50.428Z,99449.00
2019-02-09T21:43:24.874Z,99444.00
2019-02-09T21:45:56.905Z,99446.00
2019-02-09T21:48:28.523Z,99460.00
2019-02-09T21:51:00.040Z,99461.00
2019-02-09T21:53:31.579Z,99468.00
2019-02-09T21:56:04.546Z,99467.00
2019-02-09T21:58:37.030Z,99464.00
2019-02-09T22:01:11.972Z,99467.00
2019-02-09T22:03:43.944Z,99469.00
2019-02-09T22:06:16.537Z,99468.00
2019-02-09T22:08:49.663Z,99460.00
2019-02-09T22:11:21.533Z,99446.00
2019-02-09T22:13:53.158Z,99468.00
2019-02-09T22:16:24.852Z,99475.00
2019-02-09T22:19:00.168Z,99478.00
2019-02-09T22:21:32.204Z,99466.00
2019-02-09T22:24:04.414Z,99468.00
2019-02-09T22:26:38.004Z,99466.00
2019-02-09T22:29:12.194Z,99469.00
2019-02-09T22:31:43.874Z,99463.00
2019-02-09T22:34:15.545Z,99475.00
2019-02-09T22:36:47.346Z,99468.00
2019-02-09T22:39:19.235Z,99470.00
2019-02-09T22:41:50.806Z,99479.00
2019-02-09T22:44:22.398Z,99473.00
2019-02-09T22:46:53.926Z,99473.00
2019-02-09T22:49:25.488Z,99473.00
2019-02-09T22:51:57.054Z,99474.00
2019-02-09T22:54:28.596Z,99477.00
2019-02-09T22:57:00.134Z,99480.00
2019-02-09T22:59:31.740Z,99489.00
2019-02-09T23:02:03.453Z,99495.00
2019-02-09T23:05:19.243Z,99485.00
2019-02-09T23:07:51.261Z,99481.00
2019-02-09T23:10:23.039Z,99485.00
2019-02-09T23:12:57.856Z,99480.00
2019-02-09T23:15:29.494Z,99488.00
2019-02-09T23:18:01.307Z,99486.00
2019-02-09T23:20:32.901Z,99494.00
2019-02-09T23:23:04.438Z,99488.00
2019-02-09T23:25:35.966Z,99482.00
2019-02-09T23:28:07.549Z,99490.00
2019-02-09T23:30:39.079Z,99489.00
2019-02-09T23:33:10.763Z,99479.00
2019-02-09T23:35:42.311Z,99489.00
2019-02-09T23:38:16.186Z,99488.00
2019-02-09T23:40:49.544Z,99490.00
2019-02-09T23:43:21.091Z,99486.00
2019-02-09T23:45:53.141Z,99488.00
2019-02-09T23:48:24.858Z,99489.00
2019-02-09T23:50:56.395Z,99481.00
2019-02-09T23:53:28.021Z,99476.00
2019-02-09T23:56:01.302Z,99475.00
2019-02-09T23:58:32.913Z,99482.00
